Time;durP1;ratioP1;P1;durP2;ratioP2;P2;SDS_P1;SDS_P2;PMS_P1;PMS_P2;Temp;Humidity;BMP_temperature;BMP_pressure;BME280_temperature;BME280_humidity;BME280_pressure;Samples;Min_cycle;Max_cycle;Signal;HPM_P1;HPM_P2
2024/02/02 00:00:50;;;;;;;;;20.67;17.67;;;;;8.25;74.44;103406.19;2042312;28;3576257;-75
2024/02/02 00:02:02;;;;;;;;;25.67;21.33;;;;;8.22;74.30;103400.03;2032864;28;3570047;-75
2024/02/02 00:03:14;;;;;;;;;21.67;18.67;;;;;8.22;74.40;103402.66;2026011;28;3585644;-75
2024/02/02 00:04:25;;;;;;;;;23.80;21.20;;;;;8.21;74.84;103402.63;2044249;27;3572095;-75
2024/02/02 00:05:37;;;;;;;;;18.67;18.67;;;;;8.20;74.53;103408.69;2040971;28;3581529;-75
2024/02/02 00:06:49;;;;;;;;;29.80;24.20;;;;;8.19;74.51;103404.34;2035132;28;3577315;-75
2024/02/02 00:08:01;;;;;;;;;23.40;20.80;;;;;8.17;74.58;103395.56;2039078;28;3579855;-75
2024/02/02 00:09:14;;;;;;;;;22.67;20.67;;;;;8.16;74.60;103402.53;2031547;28;3588776;-75
2024/02/02 00:10:25;;;;;;;;;24.00;23.00;;;;;8.16;74.71;103404.25;2017818;28;2838847;-75
2024/02/02 00:11:37;;;;;;;;;20.33;19.33;;;;;8.13;74.38;103399.84;2035028;28;3561703;-75
2024/02/02 00:12:49;;;;;;;;;24.33;22.00;;;;;8.13;74.44;103404.19;2031714;28;3560677;-75
2024/02/02 00:14:01;;;;;;;;;23.00;19.00;;;;;8.10;74.53;103403.28;2030602;28;3577410;-75
2024/02/02 00:15:12;;;;;;;;;26.00;24.67;;;;;8.09;74.17;103403.25;2019285;28;3584617;-75
2024/02/02 00:16:24;;;;;;;;;40.40;33.80;;;;;8.06;74.88;103393.59;2037277;28;3609628;-75
2024/02/02 00:17:36;;;;;;;;;39.80;30.40;;;;;8.04;74.19;103379.59;2014925;28;3603323;-75
2024/02/02 00:18:48;;;;;;;;;37.67;33.33;;;;;8.03;74.90;103383.06;2010977;28;3610667;-75
2024/02/02 00:20:00;;;;;;;;;34.40;28.80;;;;;8.03;74.26;103383.06;2019245;28;3612805;-75
2024/02/02 00:21:12;;;;;;;;;28.20;24.20;;;;;8.02;74.70;103389.16;2014460;28;3595003;-75
2024/02/02 00:22:24;;;;;;;;;26.80;24.20;;;;;8.00;74.57;103390.84;2014951;28;3584559;-75
2024/02/02 00:23:36;;;;;;;;;34.40;28.20;;;;;7.99;74.54;103396.94;2030176;27;3603366;-75
2024/02/02 00:24:49;;;;;;;;;26.80;25.20;;;;;7.96;74.49;103389.91;2021185;27;3591957;-75
2024/02/02 00:26:00;;;;;;;;;32.00;29.00;;;;;7.96;74.49;103395.16;1995523;28;2868990;-75
2024/02/02 00:27:11;;;;;;;;;29.33;26.67;;;;;7.95;74.53;103402.97;2014183;28;3599533;-75
2024/02/02 00:28:23;;;;;;;;;28.33;24.67;;;;;7.94;74.91;103401.19;2008905;28;3593981;-75
2024/02/02 00:29:36;;;;;;;;;28.00;26.20;;;;;7.93;74.39;103396.81;2018200;27;3578364;-75
2024/02/02 00:30:47;;;;;;;;;25.00;22.50;;;;;7.92;74.48;103392.44;1994419;28;2865850;-75
2024/02/02 00:31:58;;;;;;;;;25.67;23.00;;;;;7.90;74.65;103388.91;1996405;28;3577324;-75
2024/02/02 00:33:10;;;;;;;;;28.20;25.40;;;;;7.89;74.33;103388.00;2039549;28;3585618;-75
2024/02/02 00:34:22;;;;;;;;;28.40;26.60;;;;;7.87;74.32;103390.59;2014555;28;3591867;-75
2024/02/02 00:35:34;;;;;;;;;31.33;28.33;;;;;7.88;74.32;103386.22;2004917;28;3603343;-75
2024/02/02 00:36:46;;;;;;;;;26.67;25.33;;;;;7.86;74.50;103387.94;2007700;28;3595031;-75
2024/02/02 00:37:58;;;;;;;;;25.60;24.60;;;;;7.85;75.03;103383.56;2038986;28;3580416;-75
2024/02/02 00:39:10;;;;;;;;;22.67;21.67;;;;;7.83;74.45;103386.13;2018545;28;3589116;-75
2024/02/02 00:40:22;;;;;;;;;27.33;22.67;;;;;7.82;74.11;103384.38;2030328;28;3588140;-75
2024/02/02 00:41:34;;;;;;;;;31.60;27.80;;;;;7.82;74.95;103387.00;2040877;28;3603315;-75
2024/02/02 00:42:46;;;;;;;;;25.67;23.67;;;;;7.82;74.64;103394.84;2016116;28;3589838;-75
2024/02/02 00:43:58;;;;;;;;;23.80;23.60;;;;;7.80;74.86;103393.94;2044597;28;3580404;-75
2024/02/02 00:45:10;;;;;;;;;27.60;25.80;;;;;7.80;74.85;103400.91;2043462;28;3589763;-75
2024/02/02 00:46:22;;;;;;;;;37.20;28.00;;;;;7.78;74.82;103387.78;2018149;28;3622156;-75
2024/02/02 00:47:34;;;;;;;;;30.67;23.67;;;;;7.77;74.52;103399.09;2016726;28;3584596;-75
2024/02/02 00:48:45;;;;;;;;;28.00;21.67;;;;;7.78;74.73;103402.63;2008444;28;3586706;-75
2024/02/02 00:49:58;;;;;;;;;32.80;27.00;;;;;7.76;74.92;103392.97;2012869;27;3606923;-75
2024/02/02 00:51:10;;;;;;;;;25.33;24.33;;;;;7.76;75.03;103395.59;1989989;28;3580432;-75
2024/02/02 00:52:22;;;;;;;;;28.33;26.00;;;;;7.76;74.67;103395.59;2037787;28;3594020;-75
2024/02/02 00:53:34;;;;;;;;;27.33;24.67;;;;;7.75;74.54;103390.34;2011054;28;3582520;-75
2024/02/02 00:54:46;;;;;;;;;30.00;27.00;;;;;7.74;74.63;103391.19;2034284;28;3594072;-75
2024/02/02 00:55:57;;;;;;;;;30.40;26.20;;;;;7.73;74.89;103390.28;2019810;28;3593958;-75
2024/02/02 00:57:12;;;;;;;;;32.60;23.40;;;;;7.72;75.20;103390.28;2020719;27;3600221;-75
2024/02/02 00:58:22;;;;;;;;;34.00;29.00;;;;;7.70;74.80;103385.00;1993585;28;2872083;-75
2024/02/02 00:59:34;;;;;;;;;30.20;27.20;;;;;7.70;74.63;103387.63;2021710;28;3581470;-75
2024/02/02 01:00:46;;;;;;;;;24.40;22.60;;;;;7.70;74.73;103384.13;2038203;28;3579381;-75
2024/02/02 01:01:59;;;;;;;;;29.43;26.57;;;;;7.69;74.96;103378.00;2040274;28;3586725;-75
2024/02/02 01:03:11;;;;;;;;;23.67;20.33;;;;;7.67;74.83;103378.81;2007753;28;3570004;-75
2024/02/02 01:04:23;;;;;;;;;24.00;23.00;;;;;7.67;75.16;103378.81;2032781;28;3582525;-75
2024/02/02 01:05:35;;;;;;;;;30.40;26.80;;;;;7.64;74.80;103370.03;2042461;27;3600815;-75
2024/02/02 01:06:48;;;;;;;;;29.71;24.43;;;;;7.64;74.94;103367.41;2010276;28;3593993;-75
2024/02/02 01:08:00;;;;;;;;;27.67;24.00;;;;;7.64;74.84;103375.28;1993524;28;3567976;-75
2024/02/02 01:09:12;;;;;;;;;26.60;24.00;;;;;7.64;74.71;103382.25;2036499;28;3578672;-75
2024/02/02 01:10:24;;;;;;;;;23.00;21.33;;;;;7.64;75.19;103377.00;2030763;28;3586673;-75
2024/02/02 01:11:35;;;;;;;;;22.00;20.67;;;;;7.63;75.14;103378.72;2033236;28;3569074;-75
2024/02/02 01:12:47;;;;;;;;;23.00;22.00;;;;;7.62;75.05;103387.44;2033894;28;3579414;-74
2024/02/02 01:13:59;;;;;;;;;18.00;16.67;;;;;7.61;74.85;103388.28;2031267;28;3571432;-74
2024/02/02 01:15:11;;;;;;;;;25.33;23.00;;;;;7.59;75.35;103382.13;2037626;28;3588761;-75
2024/02/02 01:16:23;;;;;;;;;20.80;20.00;;;;;7.59;74.91;103386.47;2042574;27;3561639;-75
2024/02/02 01:17:35;;;;;;;;;23.33;22.00;;;;;7.59;74.87;103382.13;2032626;28;3585656;-75
2024/02/02 01:18:47;;;;;;;;;22.33;21.33;;;;;7.59;75.00;103383.88;2039011;27;3578374;-75
2024/02/02 01:20:03;;;;;;;;;22.00;20.33;;;;;7.58;75.15;103389.97;2034080;27;3565881;-75
2024/02/02 01:21:15;;;;;;;;;21.67;17.33;;;;;7.57;75.20;103388.19;2014930;28;3559639;-75
2024/02/02 01:22:26;;;;;;;;;24.40;23.00;;;;;7.56;75.23;103387.28;2035723;28;3585627;-75
2024/02/02 01:23:38;;;;;;;;;25.20;22.60;;;;;7.53;75.00;103385.50;2038772;27;3576238;-75
2024/02/02 01:24:50;;;;;;;;;19.00;18.67;;;;;7.55;75.38;103382.94;2028324;28;3572083;-75
2024/02/02 01:26:04;;;;;;;;;24.67;21.00;;;;;7.55;74.83;103385.53;2025946;28;3583643;-75
2024/02/02 01:27:15;;;;;;;;;28.67;23.00;;;;;7.53;74.89;103385.50;2017412;28;3603348;-75
2024/02/02 01:28:27;;;;;;;;;19.00;18.00;;;;;7.53;75.12;103389.88;2016447;27;3567991;-75
2024/02/02 01:29:39;;;;;;;;;25.60;22.40;;;;;7.51;75.45;103379.34;2048090;27;3569988;-74
2024/02/02 01:30:51;;;;;;;;;18.00;14.00;;;;;7.52;74.93;103382.84;2034585;28;3545012;-75
2024/02/02 01:32:03;;;;;;;;;20.33;19.00;;;;;7.50;74.75;103382.81;2032274;28;3559616;-75
2024/02/02 01:33:14;;;;;;;;;21.67;21.00;;;;;7.49;75.13;103388.91;2023465;27;3575216;-75
2024/02/02 01:34:26;;;;;;;;;25.00;22.00;;;;;7.49;75.16;103380.16;2046098;27;3585683;-75
2024/02/02 01:35:38;;;;;;;;;24.00;20.80;;;;;7.47;74.68;103385.38;2037261;28;3583550;-75
2024/02/02 01:36:50;;;;;;;;;12.50;12.00;;;;;7.46;74.95;103380.09;2009357;28;2791950;-75
2024/02/02 01:38:02;;;;;;;;;22.00;18.00;;;;;7.45;75.03;103384.44;2021663;28;3570007;-75
2024/02/02 01:39:14;;;;;;;;;24.00;21.67;;;;;7.43;75.51;103381.78;2029928;27;3589809;-75
2024/02/02 01:40:25;;;;;;;;;21.00;18.67;;;;;7.41;74.67;103383.47;2045618;27;3563833;-74
2024/02/02 01:41:38;;;;;;;;;22.67;21.00;;;;;7.42;75.33;103380.03;2035310;28;3580460;-74
2024/02/02 01:42:49;;;;;;;;;24.33;21.33;;;;;7.41;75.15;103375.63;2015631;28;3593459;-74
2024/02/02 01:44:04;;;;;;;;;22.57;20.86;;;;;7.40;74.85;103373.88;2049820;28;2845036;-74
2024/02/02 01:45:15;;;;;;;;;21.67;21.67;;;;;7.40;74.92;103373.88;2021504;28;3581526;-74
2024/02/02 01:46:27;;;;;;;;;22.33;21.00;;;;;7.40;75.12;103371.25;2032793;28;3572107;-75
2024/02/02 01:47:39;;;;;;;;;22.00;19.80;;;;;7.39;74.92;103369.47;2035982;28;3579366;-75
2024/02/02 01:48:51;;;;;;;;;27.33;20.00;;;;;7.37;74.70;103365.06;2038562;28;3588761;-75
2024/02/02 01:50:03;;;;;;;;;23.33;21.67;;;;;7.37;75.02;103370.28;2036057;28;3591889;-75
2024/02/02 01:51:15;;;;;;;;;22.00;19.40;;;;;7.36;75.35;103379.88;2034678;28;2832514;-75
2024/02/02 01:52:28;;;;;;;;;18.00;17.00;;;;;7.36;75.23;103371.16;2014910;28;2819145;-75
2024/02/02 01:53:39;;;;;;;;;19.33;16.33;;;;;7.35;75.04;103372.88;2023188;27;3549199;-75
2024/02/02 01:54:52;;;;;;;;;23.83;20.17;;;;;7.35;75.60;103377.22;2050383;28;2854380;-75
2024/02/02 01:56:05;;;;;;;;;24.00;20.33;;;;;7.34;75.34;103378.97;2008837;28;3578341;-74
2024/02/02 01:57:16;;;;;;;;;26.00;21.00;;;;;7.34;75.47;103383.28;2016207;28;3583573;-74
2024/02/02 01:58:29;;;;;;;;;22.67;18.67;;;;;7.32;74.96;103386.78;2055085;28;2841923;-74
2024/02/02 01:59:41;;;;;;;;;21.00;20.33;;;;;7.31;75.26;103385.00;2007577;28;3577319;-75
2024/02/02 02:00:53;;;;;;;;;20.33;19.33;;;;;7.31;75.12;103381.50;2025282;28;3587716;-75
2024/02/02 02:02:06;;;;;;;;;22.00;20.67;;;;;7.30;75.09;103387.59;2028630;28;3574190;-75
2024/02/02 02:03:18;;;;;;;;;25.67;20.67;;;;;7.29;75.77;103378.84;2022459;28;3587846;-75
2024/02/02 02:04:29;;;;;;;;;22.00;20.67;;;;;7.28;75.65;103381.44;2029762;28;3567961;-75
2024/02/02 02:05:41;;;;;;;;;25.33;23.00;;;;;7.26;75.34;103383.13;2040157;27;3584607;-75
2024/02/02 02:06:54;;;;;;;;;26.80;22.40;;;;;7.28;75.72;103386.66;2032129;28;3597066;-75
2024/02/02 02:08:06;;;;;;;;;21.00;20.50;;;;;7.27;75.43;103392.75;1989473;28;2835634;-75
2024/02/02 02:09:17;;;;;;;;;22.67;22.33;;;;;7.27;75.34;103391.00;1995850;28;3579445;-75
2024/02/02 02:10:29;;;;;;;;;23.67;21.33;;;;;7.27;75.68;103390.13;2029478;28;3587735;-75
2024/02/02 02:11:43;;;;;;;;;21.00;21.00;;;;;7.27;75.11;103392.75;2033598;28;3567928;-75
2024/02/02 02:12:53;;;;;;;;;25.50;23.00;;;;;7.27;75.58;103392.75;2018358;27;2857556;-75
2024/02/02 02:14:05;;;;;;;;;23.33;21.33;;;;;7.26;75.43;103389.22;2011662;28;3579351;-75
2024/02/02 02:15:17;;;;;;;;;26.60;21.40;;;;;7.26;75.27;103386.63;2042251;28;3574163;-75
2024/02/02 02:16:29;;;;;;;;;22.60;21.40;;;;;7.25;75.26;103387.47;2036316;28;3593958;-75
2024/02/02 02:17:41;;;;;;;;;27.00;24.00;;;;;7.24;75.31;103387.44;2008001;28;3578389;-75
2024/02/02 02:18:53;;;;;;;;;25.33;21.00;;;;;7.24;75.16;103396.16;2029676;28;3589834;-75
2024/02/02 02:20:12;;;;;;;;;26.00;24.00;;;;;7.22;75.39;103384.78;2004778;28;3583597;-75
2024/02/02 02:21:25;;;;;;;;;28.33;23.67;;;;;7.21;75.30;103385.63;2014810;28;3589830;-75
2024/02/02 02:22:36;;;;;;;;;30.00;27.00;;;;;7.22;75.28;103383.91;2017719;28;2854423;-75
2024/02/02 02:23:47;;;;;;;;;24.33;24.00;;;;;7.20;75.44;103378.63;2006575;27;3579394;-75
2024/02/02 02:24:59;;;;;;;;;25.40;22.00;;;;;7.20;75.57;103378.63;2043351;27;3594999;-75
2024/02/02 02:26:11;;;;;;;;;28.20;23.80;;;;;7.18;75.85;103378.63;2014472;28;3587717;-75
2024/02/02 02:27:23;;;;;;;;;26.33;26.00;;;;;7.16;75.74;103369.81;2035853;28;3590841;-75
2024/02/02 02:28:35;;;;;;;;;26.33;25.33;;;;;7.18;75.64;103377.72;2032819;27;3588773;-75
2024/02/02 02:29:47;;;;;;;;;26.40;25.00;;;;;7.18;75.89;103375.09;2041136;28;3584631;-75
2024/02/02 02:30:59;;;;;;;;;29.40;24.60;;;;;7.17;75.53;103368.09;2015903;28;3587720;-75
2024/02/02 02:32:11;;;;;;;;;27.20;23.20;;;;;7.16;75.91;103367.19;2014725;27;3591934;-75
2024/02/02 02:33:23;;;;;;;;;22.33;22.00;;;;;7.16;75.53;103372.44;2009907;27;3587708;-75
2024/02/02 02:34:35;;;;;;;;;25.67;23.00;;;;;7.15;75.55;103373.28;2033790;27;3588819;-75
2024/02/02 02:35:47;;;;;;;;;25.33;25.00;;;;;7.15;75.54;103370.69;2030809;28;3579398;-75
2024/02/02 02:36:59;;;;;;;;;29.00;26.67;;;;;7.15;75.52;103369.78;2022738;27;3591921;-75
2024/02/02 02:38:11;;;;;;;;;34.40;29.80;;;;;7.15;75.39;103375.03;2019232;27;3604381;-75
2024/02/02 02:39:22;;;;;;;;;24.67;22.33;;;;;7.13;75.65;103367.16;2016758;28;3591949;-75
2024/02/02 02:40:34;;;;;;;;;25.80;20.60;;;;;7.14;75.93;103368.00;2041386;28;3583530;-75
2024/02/02 02:41:46;;;;;;;;;24.60;23.20;;;;;7.13;75.29;103367.16;2016064;27;3594289;-75
2024/02/02 02:42:58;;;;;;;;;33.80;26.40;;;;;7.11;75.72;103374.09;2012379;28;3609570;-75
2024/02/02 02:44:12;;;;;;;;;30.67;27.00;;;;;7.13;75.86;103376.72;2007821;28;3595048;-75
2024/02/02 02:45:24;;;;;;;;;31.50;23.00;;;;;7.11;75.50;103378.41;1994946;28;2857884;-75
2024/02/02 02:46:35;;;;;;;;;28.67;25.67;;;;;7.10;75.88;103377.53;1989061;28;3583562;-75
2024/02/02 02:47:47;;;;;;;;;23.20;22.40;;;;;7.11;75.87;103381.94;2023478;28;3591439;-75
2024/02/02 02:48:59;;;;;;;;;24.80;23.00;;;;;7.10;76.25;103374.91;2036757;28;3580416;-75
2024/02/02 02:50:11;;;;;;;;;23.80;21.40;;;;;7.08;75.93;103368.75;2043014;28;3579434;-75
2024/02/02 02:51:23;;;;;;;;;26.00;21.67;;;;;7.08;75.94;103372.28;2037617;28;3590911;-75
2024/02/02 02:52:34;;;;;;;;;24.25;19.25;;;;;7.08;76.18;103371.38;2048053;27;1835803;-75
2024/02/02 02:53:45;;;;;;;;;20.67;18.00;;;;;7.08;76.33;103364.44;1991813;28;3568990;-75
2024/02/02 02:54:56;;;;;;;;;17.00;14.00;;;;;7.09;76.58;103366.19;2039831;28;2802413;-75
2024/02/02 02:56:08;;;;;;;;;25.00;21.20;;;;;7.08;76.07;103361.81;2017493;27;3578408;-75
2024/02/02 02:57:20;;;;;;;;;23.00;21.67;;;;;7.09;76.16;103362.66;2039390;28;3569053;-75
2024/02/02 02:58:32;;;;;;;;;25.67;22.67;;;;;7.09;76.46;103355.72;2029127;28;3584607;-75
2024/02/02 02:59:44;;;;;;;;;21.67;21.67;;;;;7.10;76.65;103356.59;2039647;28;3573177;-75
2024/02/02 03:00:56;;;;;;;;;25.80;22.80;;;;;7.11;76.78;103357.50;2045035;27;3592947;-75
2024/02/02 03:02:08;;;;;;;;;28.20;22.60;;;;;7.11;76.39;103353.16;2014155;28;3587692;-75
2024/02/02 03:03:20;;;;;;;;;23.00;23.00;;;;;7.12;76.43;103351.41;2009118;28;3591910;-75
2024/02/02 03:04:31;;;;;;;;;18.40;16.40;;;;;7.12;76.43;103349.66;2048574;28;1827365;-75
2024/02/02 03:05:43;;;;;;;;;20.67;20.00;;;;;7.12;76.30;103351.41;2017456;28;3575247;-75
2024/02/02 03:06:56;;;;;;;;;18.40;16.80;;;;;7.13;76.20;103342.72;2044268;28;1836744;-75
2024/02/02 03:08:08;;;;;;;;;21.80;20.00;;;;;7.13;76.55;103341.00;2015689;28;2842942;-75
2024/02/02 03:09:20;;;;;;;;;25.67;19.67;;;;;7.14;76.18;103341.84;2003774;28;3569004;-75
2024/02/02 03:10:32;;;;;;;;;21.00;18.00;;;;;7.13;76.80;103338.38;2035859;28;3571073;-75
2024/02/02 03:11:44;;;;;;;;;25.00;23.00;;;;;7.14;76.87;103342.75;2016077;28;3589797;-73
2024/02/02 03:12:56;;;;;;;;;21.33;20.67;;;;;7.13;76.50;103351.47;2040493;27;3587731;-74
2024/02/02 03:14:08;;;;;;;;;21.00;18.00;;;;;7.14;76.42;103352.31;2035156;27;3572115;-74
2024/02/02 03:15:20;;;;;;;;;25.00;19.00;;;;;7.14;76.78;103352.31;2037082;28;3581535;-74
2024/02/02 03:16:32;;;;;;;;;25.67;23.33;;;;;7.13;76.32;103351.47;2015070;28;3589878;-74
2024/02/02 03:17:44;;;;;;;;;21.00;19.67;;;;;7.12;76.94;103348.78;2016151;27;3569337;-74
2024/02/02 03:18:55;;;;;;;;;23.67;20.67;;;;;7.13;76.53;103358.41;2036014;28;3564854;-74
2024/02/02 03:20:10;;;;;;;;;20.33;20.00;;;;;7.13;76.76;103353.19;2031782;28;3575352;-74
2024/02/02 03:21:20;;;;;;;;;19.00;17.00;;;;;7.13;76.29;103359.31;2014955;28;2826331;-74
2024/02/02 03:22:33;;;;;;;;;21.00;21.00;;;;;7.12;76.76;103356.63;2009509;27;3562704;-74
2024/02/02 03:23:44;;;;;;;;;35.33;25.33;;;;;7.11;76.27;103355.78;2030017;27;3601257;-74
2024/02/02 03:24:56;;;;;;;;;22.67;19.67;;;;;7.11;76.37;103353.16;2018708;27;3583931;-74
2024/02/02 03:26:08;;;;;;;;;25.67;23.33;;;;;7.12;76.09;103360.13;2036552;28;3583673;-74
2024/02/02 03:27:20;;;;;;;;;19.00;18.33;;;;;7.11;76.38;103352.25;2023264;28;3566942;-74
2024/02/02 03:28:33;;;;;;;;;19.67;19.67;;;;;7.11;76.25;103350.53;2038273;27;3563809;-74
2024/02/02 03:29:45;;;;;;;;;22.00;20.00;;;;;7.11;76.46;103347.03;2016847;28;3572099;-74
2024/02/02 03:30:56;;;;;;;;;26.67;22.33;;;;;7.11;76.63;103347.03;2033738;28;3579422;-74
2024/02/02 03:32:08;;;;;;;;;21.25;18.00;;;;;7.08;76.36;103347.84;2042265;28;1835722;-74
2024/02/02 03:33:19;;;;;;;;;21.33;20.00;;;;;7.07;75.53;103348.69;1995102;28;3568998;-74
2024/02/02 03:34:31;;;;;;;;;22.00;20.40;;;;;7.05;75.95;103348.66;2038651;28;3577335;-74
2024/02/02 03:35:43;;;;;;;;;23.00;22.33;;;;;7.04;75.78;103340.75;2032924;28;3571443;-74
2024/02/02 03:36:56;;;;;;;;;20.67;18.17;;;;;7.03;75.33;103339.00;2051578;28;2824231;-74
2024/02/02 03:38:09;;;;;;;;;27.33;20.33;;;;;7.03;75.85;103333.78;2029856;28;2843016;-74
2024/02/02 03:39:21;;;;;;;;;24.20;20.20;;;;;7.02;75.60;103331.97;2015338;28;3579378;-74
2024/02/02 03:40:33;;;;;;;;;21.00;20.67;;;;;7.01;75.95;103330.22;2035561;28;3576320;-74
2024/02/02 03:41:44;;;;;;;;;26.67;20.33;;;;;6.98;75.50;103329.31;2033562;28;3580423;-74
2024/02/02 03:42:56;;;;;;;;;20.67;16.33;;;;;6.98;75.60;103329.31;2032792;28;3558562;-74
2024/02/02 03:44:08;;;;;;;;;24.67;20.67;;;;;6.95;75.76;103329.25;2032421;28;3570032;-74
2024/02/02 03:45:19;;;;;;;;;19.50;16.50;;;;;6.96;75.52;103332.75;2033202;28;2815926;-74
2024/02/02 03:46:31;;;;;;;;;22.33;19.00;;;;;6.93;75.56;103333.56;2020804;27;3579374;-74
2024/02/02 03:47:42;;;;;;;;;19.50;17.00;;;;;6.93;75.81;103338.78;2041901;28;2824213;-74
2024/02/02 03:48:54;;;;;;;;;22.50;19.00;;;;;6.92;76.11;103331.78;2027150;27;1847124;-74
2024/02/02 03:50:05;;;;;;;;;12.50;12.00;;;;;6.91;75.96;103334.34;2000555;27;2786764;-74
2024/02/02 03:51:17;;;;;;;;;23.67;17.33;;;;;6.89;75.62;103329.06;2016477;27;3573133;-74
2024/02/02 03:52:29;;;;;;;;;25.00;22.33;;;;;6.88;75.72;103327.31;2033048;27;3585704;-74
2024/02/02 03:53:40;;;;;;;;;22.25;19.50;;;;;6.88;75.73;103335.16;2050333;27;1835751;-74
2024/02/02 03:54:51;;;;;;;;;18.00;17.67;;;;;6.88;75.41;103327.31;2007859;27;2827452;-74
2024/02/02 03:56:02;;;;;;;;;22.50;20.50;;;;;6.86;75.30;103322.03;2033632;27;2837796;-74
2024/02/02 03:57:13;;;;;;;;;21.33;20.33;;;;;6.84;76.08;103320.25;2048652;27;3572131;-74
2024/02/02 03:58:26;;;;;;;;;21.67;20.50;;;;;6.84;75.60;103315.88;2058262;28;2841904;-74
2024/02/02 03:59:38;;;;;;;;;23.00;22.00;;;;;6.85;76.15;103322.00;2020316;27;3583608;-74
2024/02/02 04:00:49;;;;;;;;;22.00;16.00;;;;;6.84;75.80;103320.25;2044650;27;2810691;-74
2024/02/02 04:02:01;;;;;;;;;25.00;20.00;;;;;6.85;76.07;103329.84;2021834;27;3577351;-74
2024/02/02 04:03:13;;;;;;;;;25.00;21.00;;;;;6.84;76.24;103320.25;2040605;27;3573167;-74
2024/02/02 04:04:25;;;;;;;;;24.67;21.67;;;;;6.85;76.12;103329.84;2044366;27;3575220;-74
2024/02/02 04:05:39;;;;;;;;;23.00;20.00;;;;;6.84;76.60;103331.56;2039892;28;3576276;-74
2024/02/02 04:06:50;;;;;;;;;19.33;18.00;;;;;6.86;76.29;103329.88;2014735;28;3571069;-74
2024/02/02 04:08:02;;;;;;;;;23.33;19.00;;;;;6.86;76.64;103332.50;2033859;28;3576824;-74
2024/02/02 04:09:14;;;;;;;;;23.33;22.00;;;;;6.86;76.85;103332.50;2035897;28;3575244;-74
2024/02/02 04:10:27;;;;;;;;;22.60;19.80;;;;;6.88;77.06;103324.69;2050559;27;3565821;-74
2024/02/02 04:11:37;;;;;;;;;21.00;19.00;;;;;6.90;76.39;103330.84;2022778;27;2819057;-74
2024/02/02 04:12:49;;;;;;;;;21.33;20.00;;;;;6.90;76.64;103327.34;2010678;27;3575265;-74
2024/02/02 04:14:01;;;;;;;;;17.40;14.80;;;;;6.90;76.50;103327.34;2052866;27;1839872;-74
2024/02/02 04:15:13;;;;;;;;;17.60;16.20;;;;;6.90;76.69;103322.13;2048830;27;2775224;-74
2024/02/02 04:16:25;;;;;;;;;18.67;18.67;;;;;6.90;76.57;103333.47;2025128;27;3564807;-74
2024/02/02 04:17:37;;;;;;;;;17.33;16.00;;;;;6.92;76.65;103333.50;2031771;28;3547112;-74
2024/02/02 04:18:49;;;;;;;;;23.00;18.00;;;;;6.92;76.33;103328.25;2041737;27;2814893;-74
2024/02/02 04:20:05;;;;;;;;;17.71;15.00;;;;;6.92;76.68;103331.78;2028593;27;1832562;-74
2024/02/02 04:21:16;;;;;;;;;23.33;18.33;;;;;6.93;76.52;103325.69;2016570;28;3553357;-74
2024/02/02 04:22:28;;;;;;;;;21.40;19.00;;;;;6.94;76.40;103329.22;2047856;28;1824772;-74
2024/02/02 04:23:38;;;;;;;;;17.00;13.50;;;;;6.94;76.36;103327.44;2024235;27;2804437;-74
2024/02/02 04:24:49;;;;;;;;;17.67;12.67;;;;;6.94;76.54;103313.53;2031711;27;1837778;-74
2024/02/02 04:26:00;;;;;;;;;19.50;18.00;;;;;6.96;75.96;103319.66;2001230;27;2826415;-74
2024/02/02 04:27:11;;;;;;;;;20.00;18.00;;;;;6.95;76.68;103316.16;2019304;27;2829436;-74
2024/02/02 04:28:22;;;;;;;;;17.50;12.50;;;;;6.95;76.47;103324.00;2017878;28;2808592;-74
2024/02/02 04:29:34;;;;;;;;;18.00;18.00;;;;;6.94;76.44;103310.91;2014614;27;2823230;-74
2024/02/02 04:30:44;;;;;;;;;17.50;16.00;;;;;6.93;76.12;103311.75;2031114;27;2814905;-74
2024/02/02 04:31:55;;;;;;;;;19.00;17.25;;;;;6.93;76.22;103306.50;2026182;27;1831555;-74
2024/02/02 04:33:06;;;;;;;;;23.00;19.00;;;;;6.93;76.34;103320.47;2003118;27;2832502;-74
2024/02/02 04:34:17;;;;;;;;;18.00;18.00;;;;;6.93;76.47;103317.88;2022695;27;2809640;-74
2024/02/02 04:35:34;;;;;;;;;20.00;17.33;;;;;6.91;76.56;103314.34;2020897;27;3555417;-74
2024/02/02 04:36:48;;;;;;;;;21.29;17.29;;;;;6.91;76.14;103316.94;2045684;28;1823264;-74
2024/02/02 04:38:02;;;;;;;;;19.67;16.17;;;;;6.90;75.79;103317.78;2053229;27;1833692;-74
2024/02/02 04:39:13;;;;;;;;;20.50;18.00;;;;;6.90;75.80;103328.25;1998539;28;2834624;-74
2024/02/02 04:40:24;;;;;;;;;17.50;17.50;;;;;6.91;76.32;103331.75;2010444;28;2824188;-74
2024/02/02 04:41:35;;;;;;;;;17.50;12.00;;;;;6.90;75.91;103327.34;2003401;28;2802367;-74
2024/02/02 04:42:47;;;;;;;;;22.50;14.75;;;;;6.89;75.86;103326.44;2044105;28;1829554;-74
2024/02/02 04:44:00;;;;;;;;;19.17;13.83;;;;;6.89;76.58;103331.69;2025563;27;1829479;-74
2024/02/02 04:45:14;;;;;;;;;18.67;16.17;;;;;6.90;76.04;103332.56;2037924;27;1839877;-74
2024/02/02 04:46:24;;;;;;;;;16.50;13.00;;;;;6.89;76.29;103331.69;2007831;27;2802353;-74
2024/02/02 04:47:36;;;;;;;;;18.00;17.33;;;;;6.89;76.58;103336.06;2023814;27;2820495;-74
2024/02/02 04:48:49;;;;;;;;;16.00;12.83;;;;;6.89;76.14;103330.81;2057171;27;1828964;-74
2024/02/02 04:50:00;;;;;;;;;16.00;16.00;;;;;6.89;76.16;103336.06;2006725;27;2819047;-74
2024/02/02 04:51:11;;;;;;;;;20.75;18.75;;;;;6.88;76.08;103332.56;2026691;27;1828380;-74
2024/02/02 04:52:21;;;;;;;;;18.00;16.00;;;;;6.88;75.60;103331.66;1992885;28;2823286;-74
2024/02/02 04:53:32;;;;;;;;;16.50;14.00;;;;;6.86;75.97;103332.50;2017679;27;2814913;-74
2024/02/02 04:54:43;;;;;;;;;17.00;13.00;;;;;6.86;76.26;103329.88;2017756;27;2813757;-74
2024/02/02 04:55:55;;;;;;;;;23.33;18.00;;;;;6.86;75.47;103332.50;2023893;27;2837857;-74
2024/02/02 04:57:06;;;;;;;;;12.25;11.50;;;;;6.85;75.66;103335.97;2030935;27;1846182;-74
2024/02/02 04:58:17;;;;;;;;;16.00;14.00;;;;;6.84;75.76;103336.81;2007438;28;2805472;-74
2024/02/02 04:59:28;;;;;;;;;22.50;15.50;;;;;6.82;75.87;103335.00;2009336;27;2814904;-74
2024/02/02 05:00:39;;;;;;;;;11.33;10.00;;;;;6.82;76.07;103335.88;2011591;28;2783795;-74
2024/02/02 05:01:50;;;;;;;;;10.67;10.33;;;;;6.82;76.14;103343.72;2022699;27;3503360;-74
2024/02/02 05:03:01;;;;;;;;;16.00;16.00;;;;;6.83;76.21;103349.84;2043628;27;2834671;-74
2024/02/02 05:04:14;;;;;;;;;14.80;13.80;;;;;6.83;76.03;103345.50;2032465;27;1829442;-74
2024/02/02 05:05:24;;;;;;;;;15.00;12.00;;;;;6.82;75.38;103350.69;2005254;27;2791880;-74
2024/02/02 05:06:35;;;;;;;;;10.00;10.00;;;;;6.80;75.92;103347.16;2018107;27;2785677;-74
2024/02/02 05:07:46;;;;;;;;;14.25;10.50;;;;;6.80;75.47;103347.16;2054749;27;1819036;-74
2024/02/02 05:08:58;;;;;;;;;17.50;15.00;;;;;6.79;75.82;103341.03;2004124;27;2804427;-74
2024/02/02 05:10:09;;;;;;;;;16.33;14.67;;;;;6.78;75.84;103339.28;1993702;28;3520013;-74
2024/02/02 05:11:20;;;;;;;;;11.33;11.33;;;;;6.77;75.72;103337.50;2023846;28;3507613;-74
2024/02/02 05:12:32;;;;;;;;;13.50;12.00;;;;;6.76;75.90;103340.97;2014525;28;2784759;-74
2024/02/02 05:13:43;;;;;;;;;13.25;11.00;;;;;6.77;75.52;103350.56;2035218;27;1826329;-74
2024/02/02 05:14:54;;;;;;;;;17.00;17.00;;;;;6.76;75.47;103351.44;2022146;27;2812830;-74
2024/02/02 05:16:05;;;;;;;;;12.67;12.33;;;;;6.75;75.85;103352.25;2042009;28;3520038;-74
2024/02/02 05:17:16;;;;;;;;;10.50;10.50;;;;;6.74;75.61;103350.50;2022758;27;2775267;-74
2024/02/02 05:18:27;;;;;;;;;10.00;10.00;;;;;6.74;75.58;103353.97;2024246;27;2787771;-74
2024/02/02 05:19:38;;;;;;;;;18.00;13.50;;;;;6.72;75.69;103358.28;2020459;27;2810703;-74
2024/02/02 05:20:49;;;;;;;;;15.50;13.00;;;;;6.73;75.71;103362.69;2015689;28;2802331;-74
2024/02/02 05:22:00;;;;;;;;;15.00;15.00;;;;;6.72;75.39;103366.13;1992099;27;2798212;-74
2024/02/02 05:23:11;;;;;;;;;18.00;12.00;;;;;6.72;75.74;103360.91;2019136;27;2791942;-74